Time;durP1;ratioP1;P1;durP2;ratioP2;P2;SDS_P1;SDS_P2;PMS_P1;PMS_P2;Temp;Humidity;BMP_temperature;BMP_pressure;BME280_temperature;BME280_humidity;BME280_pressure;Samples;Min_cycle;Max_cycle;Signal;HPM_P1;HPM_P2
2021/10/13 00:01:32;;;;;;;0.40;0.40;;;;;;;10.49;63.95;99952.03;111762;1193;108099;-77
2021/10/13 00:04:00;;;;;;;0.40;0.40;;;;;;;10.46;64.09;99956.39;111499;1193;137583;-78
2021/10/13 00:06:28;;;;;;;0.40;0.30;;;;;;;10.45;64.08;99959.79;111451;1195;93957;-77
2021/10/13 00:08:56;;;;;;;0.40;0.30;;;;;;;10.50;64.03;99959.09;111597;1193;138343;-77
2021/10/13 00:11:24;;;;;;;0.40;0.30;;;;;;;10.48;63.97;99959.67;111641;1193;107516;-76
2021/10/13 00:13:52;;;;;;;0.40;0.30;;;;;;;10.48;64.11;99956.65;111695;1195;108115;-78
2021/10/13 00:16:20;;;;;;;0.40;0.30;;;;;;;10.44;64.18;99958.40;111706;1194;136738;-77
2021/10/13 00:18:48;;;;;;;0.40;0.30;;;;;;;10.40;64.27;99955.89;111760;1196;94012;-77
2021/10/13 00:21:15;;;;;;;0.40;0.30;;;;;;;10.43;64.26;99953.29;111353;1193;137145;-77
2021/10/13 00:23:44;;;;;;;0.50;0.40;;;;;;;10.32;64.39;99954.66;111535;1195;106983;-76
2021/10/13 00:26:11;;;;;;;0.40;0.30;;;;;;;10.30;64.55;99955.80;111699;1193;93986;-77
2021/10/13 00:28:39;;;;;;;0.40;0.30;;;;;;;10.34;64.50;99956.91;111469;1194;137972;-77
2021/10/13 00:31:08;;;;;;;0.40;0.30;;;;;;;10.33;64.61;99957.48;111704;1193;107986;-77
2021/10/13 00:33:36;;;;;;;0.40;0.30;;;;;;;10.27;64.59;99958.38;111533;1193;137909;-77
2021/10/13 00:36:04;;;;;;;0.40;0.30;;;;;;;10.33;64.53;99958.17;111638;1193;94275;-77
2021/10/13 00:38:31;;;;;;;0.40;0.30;;;;;;;10.30;64.51;99958.08;111655;1193;94616;-77
2021/10/13 00:40:59;;;;;;;0.40;0.30;;;;;;;10.21;64.65;99961.73;111495;1193;137746;-77
2021/10/13 00:43:27;;;;;;;0.40;0.40;;;;;;;10.20;64.79;99962.30;111547;1195;107086;-78
2021/10/13 00:45:55;;;;;;;0.40;0.30;;;;;;;10.17;64.99;99963.65;111834;1193;136612;-78
2021/10/13 00:48:23;;;;;;;0.40;0.30;;;;;;;10.20;64.94;99967.81;111958;1194;93971;-78
2021/10/13 00:50:51;;;;;;;0.40;0.30;;;;;;;10.24;64.90;99972.52;111785;1193;106014;-77
2021/10/13 00:53:19;;;;;;;0.40;0.30;;;;;;;10.17;64.92;99971.98;111505;1195;137811;-81
2021/10/13 00:55:47;;;;;;;0.40;0.30;;;;;;;10.18;65.10;99974.25;111722;1195;94941;-77
2021/10/13 00:58:15;;;;;;;0.40;0.40;;;;;;;10.21;64.93;99976.84;111682;1195;139360;-79
2021/10/13 01:00:45;;;;;;;0.40;0.30;;;;;;;10.07;65.05;99977.29;112406;1195;106158;-77
2021/10/13 01:03:49;;;;;;;0.40;0.30;;;;;;;9.95;65.32;99976.20;111570;1195;137335;-77
2021/10/13 01:06:24;;;;;;;0.40;0.30;;;;;;;9.94;65.52;99976.44;111646;1194;94640;-77
2021/10/13 01:09:15;;;;;;;0.40;0.30;;;;;;;9.96;65.47;99978.68;111653;1193;94268;-77
2021/10/13 01:11:52;;;;;;;0.40;0.30;;;;;;;10.03;65.20;99982.88;112345;1193;108046;-78
2021/10/13 01:14:42;;;;;;;0.50;0.40;;;;;;;9.96;65.15;99984.52;112163;1193;107289;-78
2021/10/13 01:17:26;;;;;;;0.40;0.40;;;;;;;9.93;65.12;99984.25;112177;1193;137885;-78
2021/10/13 01:20:07;;;;;;;0.40;0.40;;;;;;;9.84;65.18;99990.20;112178;1194;94884;-77
2021/10/13 01:23:02;;;;;;;0.40;0.40;;;;;;;9.90;65.24;99993.04;112314;1194;137612;-80
2021/10/13 01:25:47;;;;;;;0.40;0.30;;;;;;;9.97;64.98;99992.64;112454;1193;107625;-78
2021/10/13 01:28:25;;;;;;;0.40;0.30;;;;;;;10.00;64.86;99989.02;111918;1194;137353;-82
2021/10/13 01:30:59;;;;;;;0.40;0.30;;;;;;;9.99;64.67;99990.64;112286;1193;93988;-79
2021/10/13 01:33:36;;;;;;;0.40;0.40;;;;;;;9.92;64.82;99993.16;112165;1193;137070;-79
2021/10/13 01:36:09;;;;;;;0.40;0.40;;;;;;;9.82;65.02;99993.98;112391;1193;107222;-78
2021/10/13 01:38:39;;;;;;;0.40;0.40;;;;;;;9.86;64.93;99999.34;112478;1193;93844;-80
2021/10/13 01:41:09;;;;;;;0.40;0.30;;;;;;;9.78;64.89;99999.07;112372;1193;139320;-79
2021/10/13 01:43:40;;;;;;;0.50;0.40;;;;;;;9.68;65.35;100006.45;112800;1194;108102;-85
2021/10/13 01:46:09;;;;;;;0.50;0.40;;;;;;;9.61;65.47;100007.89;112632;1194;136597;-77
2021/10/13 01:48:38;;;;;;;0.40;0.40;;;;;;;9.64;65.23;100004.27;112262;1193;94040;-78
2021/10/13 01:51:07;;;;;;;0.40;0.30;;;;;;;9.69;65.37;100004.30;112078;1193;94431;-78
2021/10/13 01:53:35;;;;;;;0.40;0.40;;;;;;;9.69;65.18;100003.58;112242;1193;136501;-78
2021/10/13 01:56:03;;;;;;;0.40;0.40;;;;;;;9.61;65.24;100009.11;112213;1195;107536;-78
2021/10/13 01:58:33;;;;;;;0.40;0.40;;;;;;;9.63;65.40;100009.42;112306;1193;138166;-78
2021/10/13 02:01:02;;;;;;;0.40;0.30;;;;;;;9.71;65.13;100010.79;112312;1193;93985;-78
2021/10/13 02:03:32;;;;;;;0.50;0.50;;;;;;;9.66;65.01;100011.29;112609;1193;137278;-78
2021/10/13 02:06:02;;;;;;;0.40;0.40;;;;;;;9.66;65.04;100016.09;112458;1193;108417;-79
2021/10/13 02:08:32;;;;;;;0.40;0.40;;;;;;;9.62;65.10;100014.77;112696;1193;93980;-79
2021/10/13 02:11:02;;;;;;;0.50;0.40;;;;;;;9.67;65.17;100018.17;112318;1193;138323;-79
2021/10/13 02:13:32;;;;;;;0.40;0.30;;;;;;;9.69;65.04;100017.59;112638;1193;106920;-78
2021/10/13 02:16:00;;;;;;;0.40;0.40;;;;;;;9.65;65.00;100022.32;112093;1193;137789;-78
2021/10/13 02:18:30;;;;;;;0.40;0.40;;;;;;;9.65;65.21;100022.30;112982;1193;93986;-79
2021/10/13 02:20:59;;;;;;;0.40;0.40;;;;;;;9.68;65.13;100021.85;112278;1194;94220;-78
2021/10/13 02:23:31;;;;;;;0.40;0.40;;;;;;;9.68;65.09;100029.15;112069;1193;136278;-78
2021/10/13 02:26:05;;;;;;;0.40;0.30;;;;;;;9.62;65.08;100033.39;112358;1194;108844;-80
2021/10/13 02:28:39;;;;;;;0.50;0.40;;;;;;;9.56;65.36;100038.52;112023;1193;138521;-80
2021/10/13 02:31:08;;;;;;;0.40;0.40;;;;;;;9.45;65.49;100045.21;112192;1193;94221;-80
2021/10/13 02:33:36;;;;;;;0.40;0.40;;;;;;;9.35;65.62;100045.99;111880;1195;138987;-85
2021/10/13 02:36:05;;;;;;;0.40;0.40;;;;;;;9.32;65.72;100052.46;112138;1193;107695;-79
2021/10/13 02:38:33;;;;;;;0.40;0.40;;;;;;;9.26;65.77;100053.49;112371;1193;94961;-78
2021/10/13 02:41:01;;;;;;;0.40;0.40;;;;;;;9.22;65.98;100048.81;112556;1196;138450;-77
2021/10/13 02:43:29;;;;;;;0.40;0.40;;;;;;;9.17;65.85;100056.20;112169;1193;107507;-78
2021/10/13 02:46:02;;;;;;;0.40;0.30;;;;;;;9.11;66.00;100051.41;112238;1193;139672;-78
2021/10/13 02:48:31;;;;;;;0.50;0.40;;;;;;;8.99;66.29;100056.30;112238;1193;94054;-77
2021/10/13 02:51:11;;;;;;;0.40;0.40;;;;;;;8.96;66.43;100051.98;112229;1193;94110;-80
2021/10/13 02:53:53;;;;;;;0.50;0.50;;;;;;;8.90;66.64;100054.09;112379;1193;138096;-77
2021/10/13 02:56:23;;;;;;;0.50;0.40;;;;;;;8.95;66.80;100055.73;112693;1193;108098;-79
2021/10/13 02:59:09;;;;;;;0.50;0.50;;;;;;;8.98;66.55;100050.15;113193;1193;137754;-77
2021/10/13 03:01:42;;;;;;;0.40;0.40;;;;;;;9.03;66.62;100051.98;112450;1193;93950;-80
2021/10/13 03:04:14;;;;;;;0.40;0.40;;;;;;;9.07;66.39;100054.37;112297;1193;138282;-78
2021/10/13 03:07:01;;;;;;;0.40;0.40;;;;;;;9.13;66.41;100061.29;112291;1194;107605;-80
2021/10/13 03:09:33;;;;;;;0.40;0.40;;;;;;;9.00;66.61;100067.45;111800;1197;139883;-84
2021/10/13 03:12:07;;;;;;;0.40;0.40;;;;;;;8.93;66.93;100075.27;112341;1193;94902;-88
2021/10/13 03:14:38;;;;;;;0.50;0.50;;;;;;;9.00;66.67;100076.30;112462;1192;107498;-81
2021/10/13 03:17:07;;;;;;;0.40;0.40;;;;;;;9.02;66.56;100076.60;112237;1193;138429;-78
2021/10/13 03:19:36;;;;;;;0.40;0.40;;;;;;;9.02;66.41;100076.77;112193;1193;94053;-78
2021/10/13 03:22:05;;;;;;;0.50;0.40;;;;;;;9.13;66.26;100076.33;112061;1196;138201;-78
2021/10/13 03:24:33;;;;;;;0.50;0.40;;;;;;;9.20;65.91;100075.98;112422;1193;107544;-79
2021/10/13 03:27:01;;;;;;;0.40;0.40;;;;;;;9.30;65.82;100083.34;112290;1193;107168;-77
2021/10/13 03:29:29;;;;;;;0.50;0.40;;;;;;;9.34;65.47;100086.43;112164;1193;136973;-77
2021/10/13 03:31:57;;;;;;;0.40;0.40;;;;;;;9.31;65.55;100089.00;112126;1195;94224;-77
2021/10/13 03:34:25;;;;;;;0.40;0.40;;;;;;;9.42;65.53;100089.59;112357;1193;138371;-78
2021/10/13 03:36:53;;;;;;;0.40;0.40;;;;;;;9.46;65.04;100088.60;112311;1193;107110;-78
2021/10/13 03:39:21;;;;;;;0.50;0.40;;;;;;;9.38;65.09;100085.63;112395;1193;94073;-78
2021/10/13 03:41:48;;;;;;;0.50;0.40;;;;;;;9.41;65.17;100088.17;112065;1193;137838;-77
2021/10/13 03:44:19;;;;;;;0.50;0.40;;;;;;;9.49;65.07;100092.95;111971;1195;108115;-78
2021/10/13 03:46:47;;;;;;;0.40;0.40;;;;;;;9.49;64.99;100087.43;112203;1193;138627;-80
2021/10/13 03:49:15;;;;;;;0.40;0.40;;;;;;;9.52;65.07;100086.85;112149;1194;94600;-78
2021/10/13 03:51:42;;;;;;;0.50;0.40;;;;;;;9.56;64.89;100087.25;112356;1193;137446;-78
2021/10/13 03:54:10;;;;;;;0.50;0.50;;;;;;;9.55;64.61;100089.77;112345;1193;107872;-77
2021/10/13 03:56:38;;;;;;;0.50;0.40;;;;;;;9.55;64.80;100092.77;112412;1193;105881;-79
2021/10/13 03:59:06;;;;;;;0.50;0.40;;;;;;;9.57;64.60;100094.49;112222;1193;138254;-77
2021/10/13 04:01:34;;;;;;;0.40;0.40;;;;;;;9.60;64.67;100094.59;112214;1193;94911;-78
2021/10/13 04:04:02;;;;;;;0.40;0.40;;;;;;;9.60;64.55;100098.69;112059;1193;136505;-77
2021/10/13 04:06:30;;;;;;;0.40;0.40;;;;;;;9.60;64.70;100102.92;111958;1194;108085;-78
2021/10/13 04:08:58;;;;;;;0.40;0.40;;;;;;;9.62;64.70;100105.19;112229;1196;94052;-80
2021/10/13 04:11:26;;;;;;;0.50;0.40;;;;;;;9.64;64.82;100103.36;112372;1193;139389;-78
2021/10/13 04:13:54;;;;;;;0.50;0.40;;;;;;;9.67;64.78;100104.15;111998;1196;108570;-77
2021/10/13 04:16:22;;;;;;;0.50;0.40;;;;;;;9.64;64.61;100102.81;112271;1193;137370;-78
2021/10/13 04:18:49;;;;;;;0.40;0.40;;;;;;;9.57;64.95;100104.60;112663;1193;93972;-78
2021/10/13 04:21:17;;;;;;;0.40;0.40;;;;;;;9.53;65.04;100106.98;112317;1193;94106;-80
2021/10/13 04:23:45;;;;;;;0.40;0.40;;;;;;;9.53;64.96;100106.67;112161;1193;137312;-78
2021/10/13 04:26:13;;;;;;;0.50;0.40;;;;;;;9.52;65.25;100107.92;112095;1193;106459;-80
2021/10/13 04:28:41;;;;;;;0.50;0.40;;;;;;;9.66;64.92;100110.39;112539;1194;136719;-79
2021/10/13 04:31:10;;;;;;;0.40;0.40;;;;;;;9.74;64.63;100112.48;112332;1193;93957;-78
2021/10/13 04:33:38;;;;;;;0.40;0.40;;;;;;;9.74;64.60;100113.36;111966;1196;137959;-78
2021/10/13 04:36:06;;;;;;;0.50;0.40;;;;;;;9.76;64.56;100111.89;112427;1193;107262;-80
2021/10/13 04:38:34;;;;;;;0.40;0.40;;;;;;;9.81;64.46;100113.71;113377;1193;94423;-78
2021/10/13 04:41:02;;;;;;;0.40;0.40;;;;;;;9.85;64.37;100114.46;112154;1196;137588;-79
2021/10/13 04:43:29;;;;;;;0.40;0.40;;;;;;;9.93;64.30;100114.79;112572;1193;109279;-79
2021/10/13 04:45:57;;;;;;;0.40;0.40;;;;;;;9.94;64.13;100117.98;112306;1195;138061;-78
2021/10/13 04:48:25;;;;;;;0.40;0.40;;;;;;;9.83;64.14;100119.85;112423;1193;93955;-79
2021/10/13 04:50:53;;;;;;;0.40;0.40;;;;;;;9.79;64.45;100121.20;112709;1194;94073;-81
2021/10/13 04:53:21;;;;;;;0.40;0.40;;;;;;;9.79;64.47;100123.50;112525;1193;138484;-80
2021/10/13 04:55:48;;;;;;;0.40;0.30;;;;;;;9.83;64.58;100125.87;112523;1195;107836;-79
2021/10/13 04:58:16;;;;;;;0.50;0.40;;;;;;;9.89;64.41;100129.63;112380;1195;136802;-78
2021/10/13 05:00:44;;;;;;;0.50;0.40;;;;;;;9.82;64.72;100132.45;112346;1193;93935;-79
2021/10/13 05:03:12;;;;;;;0.40;0.40;;;;;;;9.72;65.00;100134.87;112501;1193;107591;-78
2021/10/13 05:05:40;;;;;;;0.40;0.30;;;;;;;9.75;65.21;100138.34;112241;1193;139340;-77
2021/10/13 05:08:08;;;;;;;0.40;0.40;;;;;;;9.76;65.56;100144.67;112254;1193;93979;-79
2021/10/13 05:10:38;;;;;;;0.40;0.40;;;;;;;9.77;65.60;100145.73;112835;1193;138392;-79
2021/10/13 05:13:05;;;;;;;0.40;0.40;;;;;;;9.66;66.18;100143.70;112327;1193;107954;-79
2021/10/13 05:15:35;;;;;;;0.40;0.40;;;;;;;9.66;66.39;100145.65;111991;1195;138906;-78
2021/10/13 05:18:03;;;;;;;0.40;0.30;;;;;;;9.74;66.47;100150.40;114789;1193;93150;-78
2021/10/13 05:20:30;;;;;;;0.40;0.40;;;;;;;9.71;66.29;100151.57;112411;1193;93976;-79
2021/10/13 05:23:00;;;;;;;0.40;0.40;;;;;;;9.78;66.35;100160.40;112150;1193;138428;-78
2021/10/13 05:25:27;;;;;;;0.40;0.30;;;;;;;9.83;66.33;100164.51;112235;1193;108171;-80
2021/10/13 05:27:56;;;;;;;0.40;0.30;;;;;;;9.93;66.14;100169.04;112328;1193;137239;-81
2021/10/13 05:30:24;;;;;;;0.40;0.30;;;;;;;9.96;65.88;100174.48;112357;1193;94879;-77
2021/10/13 05:32:51;;;;;;;0.40;0.40;;;;;;;9.94;66.01;100178.24;112544;1193;108507;-78
2021/10/13 05:35:19;;;;;;;0.50;0.40;;;;;;;9.98;65.88;100182.93;112189;1193;138250;-80
2021/10/13 05:37:47;;;;;;;0.40;0.30;;;;;;;10.02;66.02;100188.13;112922;1193;93559;-80
2021/10/13 05:40:15;;;;;;;0.40;0.40;;;;;;;10.01;65.93;100190.14;112501;1195;138116;-78
2021/10/13 05:42:43;;;;;;;0.40;0.40;;;;;;;10.04;65.87;100192.15;112415;1193;108603;-79
2021/10/13 05:45:11;;;;;;;0.50;0.40;;;;;;;9.98;66.03;100194.63;112630;1193;107808;-77
2021/10/13 05:47:39;;;;;;;0.40;0.30;;;;;;;9.94;66.46;100195.27;112241;1193;138362;-77
2021/10/13 05:50:07;;;;;;;0.40;0.30;;;;;;;9.90;66.76;100203.36;112379;1193;93939;-75
2021/10/13 05:52:35;;;;;;;0.40;0.30;;;;;;;9.98;66.83;100204.20;112386;1193;138104;-76
2021/10/13 05:55:03;;;;;;;0.40;0.30;;;;;;;10.09;66.75;100208.52;112483;1193;108055;-77
2021/10/13 05:57:31;;;;;;;0.50;0.40;;;;;;;10.18;66.62;100214.68;112221;1193;140156;-76
2021/10/13 05:59:59;;;;;;;0.40;0.30;;;;;;;10.20;66.42;100217.81;112222;1193;94088;-76
2021/10/13 06:02:33;;;;;;;0.40;0.30;;;;;;;10.13;66.64;100224.55;112168;1193;106155;-76
2021/10/13 06:05:02;;;;;;;0.40;0.40;;;;;;;10.09;66.87;100227.50;111964;1195;138505;-76
2021/10/13 06:07:33;;;;;;;0.40;0.40;;;;;;;10.11;67.04;100232.77;112157;1193;93907;-77
2021/10/13 06:10:01;;;;;;;0.40;0.30;;;;;;;10.16;66.72;100231.23;112209;1193;138865;-76
2021/10/13 06:12:29;;;;;;;0.40;0.30;;;;;;;10.08;66.64;100236.77;112314;1193;105597;-76
2021/10/13 06:14:56;;;;;;;0.50;0.40;;;;;;;10.02;67.08;100244.90;112070;1193;108117;-76
2021/10/13 06:17:24;;;;;;;0.40;0.40;;;;;;;10.07;67.21;100246.73;112474;1193;138966;-77
2021/10/13 06:19:52;;;;;;;0.40;0.40;;;;;;;10.11;67.01;100246.80;112347;1193;94465;-76
2021/10/13 06:22:20;;;;;;;0.40;0.30;;;;;;;10.14;66.90;100254.17;112310;1193;138283;-77
2021/10/13 06:24:48;;;;;;;0.40;0.30;;;;;;;10.14;66.92;100257.55;112447;1193;107095;-77
2021/10/13 06:27:16;;;;;;;0.40;0.40;;;;;;;10.09;67.07;100259.62;112401;1193;94148;-77
2021/10/13 06:29:44;;;;;;;0.40;0.30;;;;;;;10.09;67.05;100264.05;112331;1193;138864;-80
2021/10/13 06:32:12;;;;;;;0.40;0.30;;;;;;;10.05;67.02;100270.89;112735;1193;107521;-76
2021/10/13 06:34:39;;;;;;;0.40;0.30;;;;;;;9.97;67.17;100275.00;112106;1193;138296;-76
2021/10/13 06:37:08;;;;;;;0.50;0.40;;;;;;;9.94;67.13;100277.75;112127;1193;94485;-78
2021/10/13 06:39:37;;;;;;;0.40;0.30;;;;;;;9.95;67.18;100282.16;111766;1193;138667;-76
2021/10/13 06:42:05;;;;;;;0.40;0.30;;;;;;;9.95;67.29;100281.80;112191;1193;107492;-76
2021/10/13 06:44:33;;;;;;;0.40;0.30;;;;;;;10.01;67.24;100284.13;112305;1193;105758;-79
2021/10/13 06:47:01;;;;;;;0.50;0.40;;;;;;;10.01;66.89;100286.77;112150;1193;137960;-76
2021/10/13 06:49:29;;;;;;;0.40;0.30;;;;;;;10.04;67.11;100287.25;112101;1193;94020;-76
2021/10/13 06:51:56;;;;;;;0.40;0.30;;;;;;;10.08;66.79;100291.20;112089;1193;137783;-77
2021/10/13 06:54:24;;;;;;;0.50;0.40;;;;;;;10.08;66.64;100297.79;111960;1195;108333;-78
2021/10/13 06:56:52;;;;;;;0.40;0.40;;;;;;;10.07;66.76;100298.53;112099;1197;94479;-76
2021/10/13 06:59:20;;;;;;;0.40;0.30;;;;;;;10.13;66.75;100297.29;111954;1194;137977;-77
2021/10/13 07:01:48;;;;;;;0.40;0.30;;;;;;;10.16;66.70;100296.86;112098;1195;109217;-76
2021/10/13 07:04:16;;;;;;;0.40;0.30;;;;;;;10.21;66.67;100297.43;112029;1193;138226;-76
2021/10/13 07:06:44;;;;;;;0.50;0.40;;;;;;;10.24;66.38;100297.20;112284;1192;94462;-77
2021/10/13 07:09:12;;;;;;;0.40;0.40;;;;;;;10.25;66.58;100301.23;112105;1193;94388;-76
2021/10/13 07:11:40;;;;;;;0.40;0.30;;;;;;;10.40;66.23;100300.17;112096;1193;137468;-77
2021/10/13 07:14:09;;;;;;;0.40;0.30;;;;;;;10.35;65.92;100304.55;112407;1193;108151;-76
2021/10/13 07:16:37;;;;;;;0.40;0.30;;;;;;;10.33;66.17;100310.25;111946;1192;138581;-78
2021/10/13 07:19:05;;;;;;;0.40;0.30;;;;;;;10.41;66.22;100312.92;112684;1192;94936;-79
2021/10/13 07:21:32;;;;;;;0.40;0.40;;;;;;;10.45;66.12;100319.17;112561;1192;137819;-78
2021/10/13 07:24:00;;;;;;;0.40;0.40;;;;;;;10.43;66.19;100322.98;112220;1195;108166;-79
2021/10/13 07:26:28;;;;;;;0.40;0.40;;;;;;;10.53;65.71;100324.67;112179;1193;93979;-78
2021/10/13 07:28:57;;;;;;;0.40;0.30;;;;;;;10.48;65.65;100328.33;111940;1196;137732;-78
2021/10/13 07:31:27;;;;;;;0.40;0.30;;;;;;;10.40;65.50;100326.62;112180;1193;107463;-76
2021/10/13 07:33:55;;;;;;;0.40;0.30;;;;;;;10.34;65.15;100330.99;112565;1193;139310;-80
2021/10/13 07:36:23;;;;;;;0.40;0.30;;;;;;;10.28;65.14;100333.27;112192;1195;93946;-77
2021/10/13 07:38:51;;;;;;;0.40;0.40;;;;;;;10.26;65.15;100338.13;112500;1193;94129;-77
2021/10/13 07:41:19;;;;;;;0.40;0.40;;;;;;;10.16;65.37;100340.68;112243;1193;138218;-79
2021/10/13 07:43:46;;;;;;;0.40;0.40;;;;;;;10.17;65.58;100343.84;112526;1193;107658;-82
2021/10/13 07:46:14;;;;;;;0.40;0.30;;;;;;;10.29;65.62;100336.62;112917;1193;138213;-76
2021/10/13 07:48:42;;;;;;;0.40;0.30;;;;;;;10.46;65.35;100340.29;112172;1192;94576;-77
2021/10/13 07:51:10;;;;;;;0.40;0.40;;;;;;;10.51;65.04;100343.54;112248;1193;108693;-77
2021/10/13 07:53:38;;;;;;;0.40;0.40;;;;;;;10.61;64.63;100342.38;112528;1192;138435;-80
2021/10/13 07:56:06;;;;;;;0.40;0.30;;;;;;;10.69;64.10;100347.48;112532;1192;94479;-76
2021/10/13 07:58:34;;;;;;;0.40;0.30;;;;;;;10.73;64.20;100345.61;112057;1192;138136;-77
2021/10/13 08:01:02;;;;;;;0.50;0.40;;;;;;;10.74;63.52;100345.56;112166;1193;108549;-77
2021/10/13 08:03:30;;;;;;;0.40;0.30;;;;;;;10.88;63.74;100344.65;112008;1193;138493;-77
2021/10/13 08:05:58;;;;;;;0.40;0.30;;;;;;;10.97;62.68;100346.18;112177;1193;94466;-77
2021/10/13 08:08:25;;;;;;;0.40;0.40;;;;;;;10.89;62.50;100347.46;112426;1193;93972;-78
2021/10/13 08:10:53;;;;;;;0.40;0.30;;;;;;;10.95;62.65;100350.83;112237;1193;137129;-78
2021/10/13 08:13:21;;;;;;;0.40;0.30;;;;;;;11.03;62.55;100352.21;112490;1193;106911;-80
2021/10/13 08:15:49;;;;;;;0.40;0.30;;;;;;;11.14;62.28;100349.95;112698;1193;140138;-79
2021/10/13 08:18:17;;;;;;;0.40;0.30;;;;;;;11.20;62.44;100347.79;112551;1193;94266;-77
2021/10/13 08:20:45;;;;;;;0.40;0.30;;;;;;;11.28;62.25;100350.06;112518;1193;107606;-77
2021/10/13 08:23:12;;;;;;;0.40;0.30;;;;;;;11.30;62.21;100348.41;112357;1195;139068;-78
2021/10/13 08:25:41;;;;;;;0.50;0.40;;;;;;;11.35;62.19;100350.21;112566;1193;94203;-77
2021/10/13 08:28:09;;;;;;;0.40;0.30;;;;;;;11.53;62.39;100344.15;112369;1192;139062;-78
2021/10/13 08:30:37;;;;;;;0.40;0.30;;;;;;;11.63;61.63;100344.20;112089;1193;108292;-78
2021/10/13 08:33:06;;;;;;;0.40;0.30;;;;;;;11.61;61.28;100345.33;112259;1193;106236;-80
2021/10/13 08:35:34;;;;;;;0.40;0.30;;;;;;;11.59;61.18;100343.41;112183;1194;137786;-77
2021/10/13 08:38:02;;;;;;;0.40;0.30;;;;;;;11.60;61.20;100344.65;112642;1193;94132;-78
2021/10/13 08:40:31;;;;;;;0.40;0.30;;;;;;;11.73;61.14;100348.50;112242;1195;138033;-78
2021/10/13 08:43:01;;;;;;;0.40;0.20;;;;;;;11.78;60.31;100347.27;112573;1195;106666;-78
2021/10/13 08:45:31;;;;;;;0.40;0.30;;;;;;;11.74;60.02;100350.42;112510;1193;139088;-80
2021/10/13 08:47:59;;;;;;;0.40;0.30;;;;;;;11.76;59.91;100357.83;112430;1194;94513;-81
2021/10/13 08:50:28;;;;;;;0.40;0.30;;;;;;;12.08;59.96;100357.17;112557;1193;108056;-79
2021/10/13 08:53:05;;;;;;;0.40;0.30;;;;;;;12.46;58.13;100354.13;112330;1193;138959;-79
2021/10/13 08:55:34;;;;;;;0.40;0.30;;;;;;;12.38;58.42;100354.39;112409;1195;94400;-80
2021/10/13 08:58:11;;;;;;;0.40;0.30;;;;;;;12.54;58.42;100362.57;112508;1193;137963;-79
2021/10/13 09:00:41;;;;;;;0.40;0.20;;;;;;;12.46;57.95;100367.11;113066;1194;108149;-78
2021/10/13 09:03:25;;;;;;;0.40;0.30;;;;;;;12.45;58.18;100370.54;112604;1193;107148;-77
2021/10/13 09:05:55;;;;;;;0.40;0.30;;;;;;;12.50;57.93;100367.85;112297;1193;138783;-82
2021/10/13 09:08:23;;;;;;;0.40;0.30;;;;;;;12.59;57.48;100374.16;112486;1193;94662;-82
2021/10/13 09:10:55;;;;;;;0.40;0.30;;;;;;;12.98;57.07;100369.19;112413;1194;137310;-77
2021/10/13 09:13:23;;;;;;;0.40;0.20;;;;;;;14.53;54.73;100365.94;112451;1194;105782;-82
2021/10/13 09:15:54;;;;;;;0.40;0.20;;;;;;;15.48;52.19;100367.95;112711;1193;137553;-80
2021/10/13 09:18:23;;;;;;;0.40;0.20;;;;;;;15.75;50.52;100366.50;113983;1194;93899;-81
2021/10/13 09:20:53;;;;;;;0.40;0.20;;;;;;;16.40;48.35;100360.05;114115;1193;107456;-80
2021/10/13 09:23:29;;;;;;;0.40;0.20;;;;;;;15.74;49.08;100370.29;112379;1195;136592;-79
2021/10/13 09:26:00;;;;;;;0.40;0.20;;;;;;;15.61;49.73;100371.61;113189;1193;94268;-80
2021/10/13 09:28:28;;;;;;;0.40;0.20;;;;;;;15.60;49.46;100373.64;112670;1193;137151;-77
2021/10/13 09:31:10;;;;;;;0.40;0.20;;;;;;;16.64;48.40;100370.25;112278;1195;108557;-78
2021/10/13 09:33:38;;;;;;;0.40;0.20;;;;;;;19.06;44.34;100359.98;112405;1193;138216;-79
2021/10/13 09:36:13;;;;;;;0.40;0.10;;;;;;;20.69;40.65;100357.34;113203;1193;93975;-79
2021/10/13 09:38:43;;;;;;;0.40;0.10;;;;;;;22.19;36.00;100357.23;112614;1192;94504;-79
2021/10/13 09:41:11;;;;;;;0.40;0.10;;;;;;;22.73;34.27;100363.24;113288;1192;139048;-77
2021/10/13 09:43:40;;;;;;;0.40;0.10;;;;;;;22.27;35.63;100364.80;112480;1193;107686;-79
2021/10/13 09:46:16;;;;;;;0.40;0.10;;;;;;;22.89;33.90;100366.94;113108;1194;138687;-80
2021/10/13 09:48:59;;;;;;;0.40;0.10;;;;;;;22.08;34.59;100373.40;114024;1194;95453;-80
2021/10/13 09:51:27;;;;;;;0.40;0.10;;;;;;;20.53;36.08;100376.48;113281;1193;106165;-79
2021/10/13 09:54:07;;;;;;;0.40;0.10;;;;;;;19.82;37.76;100382.06;112592;1195;137077;-79
2021/10/13 09:56:37;;;;;;;0.40;0.10;;;;;;;19.17;37.89;100382.19;112626;1194;94153;-78
2021/10/13 09:59:15;;;;;;;0.40;0.10;;;;;;;18.15;39.96;100384.88;112532;1193;139013;-77
2021/10/13 10:01:46;;;;;;;0.40;0.10;;;;;;;18.04;40.94;100383.04;112573;1193;106606;-79
2021/10/13 10:04:26;;;;;;;0.40;0.10;;;;;;;18.49;40.23;100383.43;112995;1193;137453;-80
2021/10/13 10:06:56;;;;;;;0.40;0.10;;;;;;;19.51;38.26;100382.23;112666;1193;94150;-78
2021/10/13 10:09:25;;;;;;;0.40;0.10;;;;;;;20.41;35.83;100378.89;112537;1195;94019;-78
2021/10/13 10:12:04;;;;;;;0.40;0.10;;;;;;;20.05;36.19;100376.95;112495;1193;137193;-78
2021/10/13 10:14:43;;;;;;;0.40;0.10;;;;;;;20.15;36.04;100382.10;112707;1193;108060;-79
2021/10/13 10:17:15;;;;;;;0.40;0.00;;;;;;;21.76;33.27;100383.32;112588;1193;138440;-78
2021/10/13 10:19:46;;;;;;;0.40;0.00;;;;;;;23.02;31.15;100384.73;112587;1193;94066;-81
2021/10/13 10:22:22;;;;;;;0.40;0.00;;;;;;;22.09;31.74;100388.38;112512;1193;138158;-80
2021/10/13 10:24:55;;;;;;;0.40;0.10;;;;;;;20.39;34.98;100392.77;112577;1193;108066;-79
2021/10/13 10:27:43;;;;;;;0.40;0.10;;;;;;;19.54;36.25;100391.77;112287;1195;94000;-78
2021/10/13 10:30:11;;;;;;;0.40;0.10;;;;;;;18.58;37.56;100388.67;112287;1193;138620;-78
2021/10/13 10:32:40;;;;;;;0.40;0.10;;;;;;;17.94;38.75;100392.73;112313;1193;108128;-80
2021/10/13 10:35:16;;;;;;;0.40;0.10;;;;;;;17.25;40.03;100394.58;112398;1193;137382;-79
2021/10/13 10:37:46;;;;;;;0.40;0.10;;;;;;;16.70;41.45;100397.63;112288;1193;94522;-80
2021/10/13 10:40:21;;;;;;;0.40;0.10;;;;;;;16.22;42.14;100399.67;112248;1193;138014;-80
2021/10/13 10:42:54;;;;;;;0.40;0.20;;;;;;;15.81;43.26;100400.95;112291;1193;106120;-79
2021/10/13 10:45:48;;;;;;;0.40;0.10;;;;;;;15.49;44.40;100401.36;112423;1193;107097;-81
2021/10/13 10:48:16;;;;;;;0.40;0.20;;;;;;;15.15;44.50;100401.14;112998;1195;138091;-80
2021/10/13 10:50:44;;;;;;;0.40;0.10;;;;;;;14.62;45.38;100399.11;112966;1193;94657;-77
2021/10/13 10:53:21;;;;;;;0.40;0.20;;;;;;;14.35;46.71;100404.17;112475;1193;137745;-77
2021/10/13 10:55:50;;;;;;;0.40;0.20;;;;;;;14.07;47.49;100408.20;112350;1193;106474;-79
2021/10/13 10:58:26;;;;;;;0.40;0.20;;;;;;;13.77;47.87;100414.02;112586;1193;137691;-79
2021/10/13 11:01:15;;;;;;;0.40;0.20;;;;;;;13.48;48.78;100421.05;112564;1193;96758;-77
2021/10/13 11:03:43;;;;;;;0.40;0.20;;;;;;;13.18;49.33;100420.33;112680;1194;106505;-79
2021/10/13 11:06:14;;;;;;;0.40;0.20;;;;;;;13.21;50.29;100424.32;112338;1193;137482;-81
2021/10/13 11:08:56;;;;;;;0.40;0.30;;;;;;;13.23;50.31;100424.08;112721;1193;95215;-80
2021/10/13 11:11:29;;;;;;;0.40;0.20;;;;;;;13.18;50.40;100423.70;112563;1193;136769;-79
2021/10/13 11:14:01;;;;;;;0.40;0.20;;;;;;;13.10;50.61;100423.14;112718;1193;108680;-77
2021/10/13 11:16:37;;;;;;;0.40;0.20;;;;;;;13.00;50.67;100422.05;112394;1194;138371;-81
2021/10/13 11:19:15;;;;;;;0.40;0.30;;;;;;;12.93;50.76;100421.23;113223;1193;93985;-79
2021/10/13 11:21:45;;;;;;;0.40;0.20;;;;;;;12.83;50.82;100423.56;113299;1193;94879;-79
2021/10/13 11:24:16;;;;;;;0.40;0.20;;;;;;;12.79;51.13;100422.98;112286;1193;138269;-77
2021/10/13 11:26:44;;;;;;;0.40;0.20;;;;;;;12.75;51.42;100424.39;112494;1194;107783;-78
2021/10/13 11:29:26;;;;;;;0.40;0.30;;;;;;;12.78;51.93;100425.33;112053;1194;137570;-78
2021/10/13 11:32:12;;;;;;;0.40;0.30;;;;;;;12.96;51.96;100426.84;112732;1194;93948;-78